sensor_id;sensor_type;location;lat;lon;timestamp;pressure;altitude;pressure_sealevel;temperature;humidity
13709;BME280;54933;51.908;7.730;2023-02-19T00:01:23;100918.19;;;20.00;79.34
13709;BME280;54933;51.908;7.730;2023-02-19T00:03:52;100926.28;;;20.00;79.25
13709;BME280;54933;51.908;7.730;2023-02-19T00:06:19;100928.97;;;20.00;79.24
13709;BME280;54933;51.908;7.730;2023-02-19T00:08:44;100926.28;;;20.00;79.43
13709;BME280;54933;51.908;7.730;2023-02-19T00:11:12;100923.56;;;20.00;79.09
13709;BME280;54933;51.908;7.730;2023-02-19T00:13:43;100919.19;;;19.99;78.95
13709;BME280;54933;51.908;7.730;2023-02-19T00:16:18;100924.38;;;20.00;79.30
13709;BME280;54933;51.908;7.730;2023-02-19T00:18:44;100920.88;;;20.00;79.54
13709;BME280;54933;51.908;7.730;2023-02-19T00:21:09;100920.88;;;20.00;79.19
13709;BME280;54933;51.908;7.730;2023-02-19T00:23:35;100916.28;;;20.00;79.27
13709;BME280;54933;51.908;7.730;2023-02-19T00:26:05;100923.38;;;20.01;79.19
13709;BME280;54933;51.908;7.730;2023-02-19T00:28:31;100910.91;;;20.00;79.16
13709;BME280;54933;51.908;7.730;2023-02-19T00:31:15;100911.72;;;20.01;78.95
13709;BME280;54933;51.908;7.730;2023-02-19T00:33:41;100910.69;;;20.02;79.01
13709;BME280;54933;51.908;7.730;2023-02-19T00:36:06;100913.38;;;20.02;79.18
13709;BME280;54933;51.908;7.730;2023-02-19T00:38:36;100908.00;;;20.02;79.07
13709;BME280;54933;51.908;7.730;2023-02-19T00:41:02;100918.78;;;20.02;79.12
13709;BME280;54933;51.908;7.730;2023-02-19T00:43:46;100906.13;;;20.02;79.09
13709;BME280;54933;51.908;7.730;2023-02-19T00:46:12;100908.00;;;20.02;79.00
13709;BME280;54933;51.908;7.730;2023-02-19T00:48:37;100909.66;;;20.03;78.99
13709;BME280;54933;51.908;7.730;2023-02-19T00:51:02;100915.06;;;20.03;78.94
13709;BME280;54933;51.908;7.730;2023-02-19T00:53:28;100917.75;;;20.03;79.05
13709;BME280;54933;51.908;7.730;2023-02-19T00:55:53;100905.91;;;20.04;79.00
13709;BME280;54933;51.908;7.730;2023-02-19T00:58:18;100915.88;;;20.03;78.91
13709;BME280;54933;51.908;7.730;2023-02-19T01:00:44;100916.72;;;20.04;79.23
13709;BME280;54933;51.908;7.730;2023-02-19T01:03:09;100916.72;;;20.04;78.92
13709;BME280;54933;51.908;7.730;2023-02-19T01:05:34;100922.09;;;20.04;78.76
13709;BME280;54933;51.908;7.730;2023-02-19T01:07:59;100918.56;;;20.03;78.73
13709;BME280;54933;51.908;7.730;2023-02-19T01:10:24;100918.38;;;20.05;79.03
13709;BME280;54933;51.908;7.730;2023-02-19T01:12:50;100917.34;;;20.06;78.84
13709;BME280;54933;51.908;7.730;2023-02-19T01:15:15;100918.38;;;20.05;78.99
13709;BME280;54933;51.908;7.730;2023-02-19T01:17:40;100914.66;;;20.06;78.70
13709;BME280;54933;51.908;7.730;2023-02-19T01:20:06;100913.00;;;20.05;78.75
13709;BME280;54933;51.908;7.730;2023-02-19T01:22:31;100913.00;;;20.05;78.63
13709;BME280;54933;51.908;7.730;2023-02-19T01:24:56;100915.47;;;20.06;78.71
13709;BME280;54933;51.908;7.730;2023-02-19T01:27:22;100910.09;;;20.06;78.66
13709;BME280;54933;51.908;7.730;2023-02-19T01:29:47;100909.25;;;20.06;78.51
13709;BME280;54933;51.908;7.730;2023-02-19T01:32:12;100909.25;;;20.06;78.61
13709;BME280;54933;51.908;7.730;2023-02-19T01:34:38;100909.25;;;20.06;78.62
13709;BME280;54933;51.908;7.730;2023-02-19T01:37:03;100913.59;;;20.07;78.57
13709;BME280;54933;51.908;7.730;2023-02-19T01:39:28;100910.09;;;20.06;78.69
13709;BME280;54933;51.908;7.730;2023-02-19T01:41:53;100916.28;;;20.07;78.51
13709;BME280;54933;51.908;7.730;2023-02-19T01:46:45;100917.13;;;20.07;78.61
13709;BME280;54933;51.908;7.730;2023-02-19T01:49:15;100917.13;;;20.07;78.62
13709;BME280;54933;51.908;7.730;2023-02-19T01:51:45;100916.09;;;20.08;78.56
13709;BME280;54933;51.908;7.730;2023-02-19T01:54:13;100915.28;;;20.08;78.61
13709;BME280;54933;51.908;7.730;2023-02-19T01:56:42;100908.00;;;20.08;78.68
13709;BME280;54933;51.908;7.730;2023-02-19T01:59:09;100904.50;;;20.08;78.61
13709;BME280;54933;51.908;7.730;2023-02-19T02:01:36;100916.09;;;20.08;78.60
13709;BME280;54933;51.908;7.730;2023-02-19T02:04:04;100908.84;;;20.09;78.50
13709;BME280;54933;51.908;7.730;2023-02-19T02:06:38;100916.94;;;20.09;78.54
13709;BME280;54933;51.908;7.730;2023-02-19T02:09:05;100913.38;;;20.08;78.42
13709;BME280;54933;51.908;7.730;2023-02-19T02:11:51;100908.84;;;20.09;78.25
13709;BME280;54933;51.908;7.730;2023-02-19T02:14:18;100909.88;;;20.08;78.59
13709;BME280;54933;51.908;7.730;2023-02-19T02:16:56;100914.22;;;20.09;78.34
13709;BME280;54933;51.908;7.730;2023-02-19T02:19:37;100909.88;;;20.08;78.44
13709;BME280;54933;51.908;7.730;2023-02-19T02:22:24;100916.94;;;20.09;78.35
13709;BME280;54933;51.908;7.730;2023-02-19T02:25:10;100922.31;;;20.09;78.24
13709;BME280;54933;51.908;7.730;2023-02-19T02:31:03;100912.56;;;20.08;78.31
13709;BME280;54933;51.908;7.730;2023-02-19T02:33:52;100913.38;;;20.08;78.28
13709;BME280;54933;51.908;7.730;2023-02-19T02:36:21;100905.28;;;20.08;78.26
13709;BME280;54933;51.908;7.730;2023-02-19T02:38:49;100906.34;;;20.07;78.18
13709;BME280;54933;51.908;7.730;2023-02-19T02:41:17;100912.56;;;20.08;78.28
13709;BME280;54933;51.908;7.730;2023-02-19T02:43:42;100903.66;;;20.07;78.13
13709;BME280;54933;51.908;7.730;2023-02-19T02:46:12;100903.44;;;20.09;78.24
13709;BME280;54933;51.908;7.730;2023-02-19T02:51:30;100916.09;;;20.08;77.93
13709;BME280;54933;51.908;7.730;2023-02-19T02:54:00;100911.53;;;20.09;78.07
13709;BME280;54933;51.908;7.730;2023-02-19T02:56:47;100910.69;;;20.08;78.10
13709;BME280;54933;51.908;7.730;2023-02-19T02:59:15;100903.66;;;20.07;77.95
13709;BME280;54933;51.908;7.730;2023-02-19T03:01:54;100906.13;;;20.09;77.96
13709;BME280;54933;51.908;7.730;2023-02-19T03:04:57;100903.44;;;20.09;77.89
13709;BME280;54933;51.908;7.730;2023-02-19T03:07:51;100903.44;;;20.09;77.72
13709;BME280;54933;51.908;7.730;2023-02-19T03:10:25;100899.09;;;20.08;77.86
13709;BME280;54933;51.908;7.730;2023-02-19T03:12:53;100909.88;;;20.08;77.78
13709;BME280;54933;51.908;7.730;2023-02-19T03:15:45;100904.50;;;20.08;77.80
13709;BME280;54933;51.908;7.730;2023-02-19T03:18:32;100914.22;;;20.09;77.91
13709;BME280;54933;51.908;7.730;2023-02-19T03:21:19;100913.38;;;20.08;77.87
13709;BME280;54933;51.908;7.730;2023-02-19T03:23:47;100919.63;;;20.09;77.71
13709;BME280;54933;51.908;7.730;2023-02-19T03:26:32;100925.00;;;20.09;77.75
13709;BME280;54933;51.908;7.730;2023-02-19T03:28:58;100924.19;;;20.08;77.84
13709;BME280;54933;51.908;7.730;2023-02-19T03:31:44;100934.97;;;20.08;77.76
13709;BME280;54933;51.908;7.730;2023-02-19T03:34:15;100937.66;;;20.08;77.84
13709;BME280;54933;51.908;7.730;2023-02-19T03:36:45;100942.03;;;20.09;77.61
13709;BME280;54933;51.908;7.730;2023-02-19T03:39:14;100937.47;;;20.10;77.66
13709;BME280;54933;51.908;7.730;2023-02-19T03:41:43;100934.75;;;20.10;77.45
13709;BME280;54933;51.908;7.730;2023-02-19T03:44:19;100943.69;;;20.10;77.66
13709;BME280;54933;51.908;7.730;2023-02-19T03:47:21;100949.09;;;20.10;77.58
13709;BME280;54933;51.908;7.730;2023-02-19T03:52:29;100957.19;;;20.10;77.59
13709;BME280;54933;51.908;7.730;2023-02-19T03:55:25;100956.34;;;20.10;77.50
13709;BME280;54933;51.908;7.730;2023-02-19T03:58:07;100956.34;;;20.10;77.71
13709;BME280;54933;51.908;7.730;2023-02-19T04:00:42;100957.19;;;20.10;77.66
13709;BME280;54933;51.908;7.730;2023-02-19T04:03:21;100960.72;;;20.11;77.43
13709;BME280;54933;51.908;7.730;2023-02-19T04:05:57;100959.03;;;20.10;77.70
13709;BME280;54933;51.908;7.730;2023-02-19T04:08:25;100966.97;;;20.11;77.55
13709;BME280;54933;51.908;7.730;2023-02-19T04:10:53;100967.13;;;20.10;77.60
13709;BME280;54933;51.908;7.730;2023-02-19T04:13:29;100966.97;;;20.11;77.46
13709;BME280;54933;51.908;7.730;2023-02-19T04:16:00;100976.91;;;20.11;77.51
13709;BME280;54933;51.908;7.730;2023-02-19T04:18:30;100981.25;;;20.12;77.52
13709;BME280;54933;51.908;7.730;2023-02-19T04:20:59;100986.84;;;20.10;77.39
13709;BME280;54933;51.908;7.730;2023-02-19T04:23:28;100989.34;;;20.12;77.53
13709;BME280;54933;51.908;7.730;2023-02-19T04:25:56;100990.41;;;20.11;77.21
13709;BME280;54933;51.908;7.730;2023-02-19T04:28:22;100992.03;;;20.12;77.52
13709;BME280;54933;51.908;7.730;2023-02-19T04:30:48;100992.88;;;20.12;77.44
13709;BME280;54933;51.908;7.730;2023-02-19T04:33:13;101000.13;;;20.12;77.20
13709;BME280;54933;51.908;7.730;2023-02-19T04:35:38;101000.13;;;20.12;77.42
13709;BME280;54933;51.908;7.730;2023-02-19T04:38:04;101005.53;;;20.12;77.43
13709;BME280;54933;51.908;7.730;2023-02-19T04:40:29;101018.00;;;20.13;77.37
13709;BME280;54933;51.908;7.730;2023-02-19T04:42:54;101018.00;;;20.13;77.30
13709;BME280;54933;51.908;7.730;2023-02-19T04:45:20;101026.09;;;20.13;77.17
13709;BME280;54933;51.908;7.730;2023-02-19T04:47:45;101019.88;;;20.12;77.26
13709;BME280;54933;51.908;7.730;2023-02-19T04:50:10;101025.25;;;20.12;77.25
13709;BME280;54933;51.908;7.730;2023-02-19T04:52:35;101035.22;;;20.12;76.99
13709;BME280;54933;51.908;7.730;2023-02-19T04:55:01;101031.50;;;20.13;77.71
13709;BME280;54933;51.908;7.730;2023-02-19T04:57:26;101028.78;;;20.13;77.20
13709;BME280;54933;51.908;7.730;2023-02-19T04:59:52;101037.91;;;20.12;77.11
13709;BME280;54933;51.908;7.730;2023-02-19T05:02:17;101044.16;;;20.12;77.19
13709;BME280;54933;51.908;7.730;2023-02-19T05:04:42;101038.75;;;20.12;77.06
13709;BME280;54933;51.908;7.730;2023-02-19T05:07:08;101041.06;;;20.15;77.14
13709;BME280;54933;51.908;7.730;2023-02-19T05:09:33;101047.50;;;20.14;77.01
13709;BME280;54933;51.908;7.730;2023-02-19T05:11:58;101056.78;;;20.12;77.05
13709;BME280;54933;51.908;7.730;2023-02-19T05:14:23;101053.66;;;20.08;77.09
13709;BME280;54933;51.908;7.730;2023-02-19T05:16:49;101071.75;;;20.08;76.97
13709;BME280;54933;51.908;7.730;2023-02-19T05:19:14;101072.75;;;20.07;76.77
13709;BME280;54933;51.908;7.730;2023-02-19T05:21:39;101074.84;;;20.05;76.97
13709;BME280;54933;51.908;7.730;2023-02-19T05:24:05;101079.00;;;20.07;76.90
13709;BME280;54933;51.908;7.730;2023-02-19T05:26:30;101081.91;;;20.06;77.15
13709;BME280;54933;51.908;7.730;2023-02-19T05:28:56;101076.50;;;20.06;77.17
13709;BME280;54933;51.908;7.730;2023-02-19T05:31:21;101088.94;;;20.07;77.12
13709;BME280;54933;51.908;7.730;2023-02-19T05:33:47;101086.44;;;20.05;77.38
13709;BME280;54933;51.908;7.730;2023-02-19T05:36:16;101099.72;;;20.07;77.57
13709;BME280;54933;51.908;7.730;2023-02-19T05:38:41;101092.69;;;20.06;77.37
13709;BME280;54933;51.908;7.730;2023-02-19T05:41:08;101091.84;;;20.05;77.37
13709;BME280;54933;51.908;7.730;2023-02-19T05:43:33;101101.81;;;20.05;77.25
13709;BME280;54933;51.908;7.730;2023-02-19T05:45:58;101101.81;;;20.05;77.50
13709;BME280;54933;51.908;7.730;2023-02-19T05:48:24;101103.47;;;20.06;77.44
13709;BME280;54933;51.908;7.730;2023-02-19T05:50:49;101110.53;;;20.07;77.54
13709;BME280;54933;51.908;7.730;2023-02-19T05:53:14;101105.13;;;20.07;77.35
13709;BME280;54933;51.908;7.730;2023-02-19T05:55:40;101109.50;;;20.08;77.26
13709;BME280;54933;51.908;7.730;2023-02-19T05:58:05;101113.00;;;20.08;77.27
13709;BME280;54933;51.908;7.730;2023-02-19T06:00:31;101112.19;;;20.08;76.93
13709;BME280;54933;51.908;7.730;2023-02-19T06:02:57;101115.91;;;20.07;77.21
13709;BME280;54933;51.908;7.730;2023-02-19T06:05:22;101121.31;;;20.07;77.37
13709;BME280;54933;51.908;7.730;2023-02-19T06:07:47;101121.31;;;20.07;77.39
13709;BME280;54933;51.908;7.730;2023-02-19T06:10:14;101123.00;;;20.08;77.17
13709;BME280;54933;51.908;7.730;2023-02-19T06:12:40;101128.97;;;20.03;76.95
13709;BME280;54933;51.908;7.730;2023-02-19T06:15:06;101132.91;;;20.01;76.85
13709;BME280;54933;51.908;7.730;2023-02-19T06:17:32;101135.63;;;20.01;76.80
13709;BME280;54933;51.908;7.730;2023-02-19T06:19:58;101133.97;;;20.00;76.71
13709;BME280;54933;51.908;7.730;2023-02-19T06:22:23;101142.88;;;20.00;76.63
13709;BME280;54933;51.908;7.730;2023-02-19T06:24:49;101149.09;;;20.01;76.53
13709;BME280;54933;51.908;7.730;2023-02-19T06:27:14;101138.72;;;19.98;76.77
13709;BME280;54933;51.908;7.730;2023-02-19T06:29:39;101142.44;;;19.97;76.50
13709;BME280;54933;51.908;7.730;2023-02-19T06:32:06;101151.56;;;19.96;76.37
13709;BME280;54933;51.908;7.730;2023-02-19T06:34:31;101150.94;;;19.94;75.97
13709;BME280;54933;51.908;7.730;2023-02-19T06:36:57;101145.53;;;19.94;76.06
13709;BME280;54933;51.908;7.730;2023-02-19T06:39:23;101156.97;;;19.96;75.89
13709;BME280;54933;51.908;7.730;2023-02-19T06:41:49;101163.19;;;19.96;75.85
13709;BME280;54933;51.908;7.730;2023-02-19T06:44:14;101163.19;;;19.96;76.01
13709;BME280;54933;51.908;7.730;2023-02-19T06:46:39;101173.16;;;19.96;75.98
13709;BME280;54933;51.908;7.730;2023-02-19T06:49:05;101182.88;;;19.97;76.30
13709;BME280;54933;51.908;7.730;2023-02-19T06:51:30;101181.03;;;19.97;76.67
13709;BME280;54933;51.908;7.730;2023-02-19T06:53:57;101192.66;;;19.98;76.84
13709;BME280;54933;51.908;7.730;2023-02-19T06:56:28;101201.75;;;19.97;76.79
13709;BME280;54933;51.908;7.730;2023-02-19T06:58:55;101209.25;;;19.95;76.73
13709;BME280;54933;51.908;7.730;2023-02-19T07:01:22;101211.31;;;19.93;76.44
13709;BME280;54933;51.908;7.730;2023-02-19T07:03:47;101203.41;;;19.91;76.20
13709;BME280;54933;51.908;7.730;2023-02-19T07:06:13;101219.59;;;19.91;75.66
13709;BME280;54933;51.908;7.730;2023-02-19T07:08:38;101220.44;;;19.92;75.46
13709;BME280;54933;51.908;7.730;2023-02-19T07:11:04;101228.34;;;19.93;75.42
13709;BME280;54933;51.908;7.730;2023-02-19T07:13:29;101241.81;;;19.93;75.53
13709;BME280;54933;51.908;7.730;2023-02-19T07:16:03;101238.28;;;19.93;75.43
13709;BME280;54933;51.908;7.730;2023-02-19T07:18:30;101242.63;;;19.94;75.62
13709;BME280;54933;51.908;7.730;2023-02-19T07:21:04;101239.13;;;19.93;75.82
13709;BME280;54933;51.908;7.730;2023-02-19T07:23:29;101249.91;;;19.93;76.10
13709;BME280;54933;51.908;7.730;2023-02-19T07:25:55;101248.03;;;19.94;76.05
13709;BME280;54933;51.908;7.730;2023-02-19T07:28:21;101253.22;;;19.95;76.29
13709;BME280;54933;51.908;7.730;2023-02-19T07:30:46;101262.16;;;19.96;76.69
13709;BME280;54933;51.908;7.730;2023-02-19T07:33:11;101266.50;;;19.97;76.78
13709;BME280;54933;51.908;7.730;2023-02-19T07:35:37;101273.78;;;19.96;76.92
13709;BME280;54933;51.908;7.730;2023-02-19T07:38:02;101274.78;;;19.95;77.17
13709;BME280;54933;51.908;7.730;2023-02-19T07:40:27;101282.69;;;19.97;77.50
13709;BME280;54933;51.908;7.730;2023-02-19T07:42:52;101280.00;;;19.97;77.67
13709;BME280;54933;51.908;7.730;2023-02-19T07:45:18;101285.16;;;19.92;77.51
13709;BME280;54933;51.908;7.730;2023-02-19T07:47:43;101287.03;;;19.91;76.95
13709;BME280;54933;51.908;7.730;2023-02-19T07:50:08;101290.56;;;19.92;76.78
13709;BME280;54933;51.908;7.730;2023-02-19T07:52:33;101287.03;;;19.91;76.47
13709;BME280;54933;51.908;7.730;2023-02-19T07:54:59;101292.63;;;19.90;76.52
13709;BME280;54933;51.908;7.730;2023-02-19T07:57:26;101304.41;;;19.89;76.16
13709;BME280;54933;51.908;7.730;2023-02-19T07:59:52;101298.00;;;19.90;75.90
13709;BME280;54933;51.908;7.730;2023-02-19T08:02:18;101309.81;;;19.89;75.92
13709;BME280;54933;51.908;7.730;2023-02-19T08:05:04;101311.69;;;19.88;75.73
13709;BME280;54933;51.908;7.730;2023-02-19T08:07:33;101316.25;;;19.88;75.70
13709;BME280;54933;51.908;7.730;2023-02-19T08:09:59;101325.19;;;19.88;76.01
13709;BME280;54933;51.908;7.730;2023-02-19T08:12:44;101346.56;;;19.90;76.03
13709;BME280;54933;51.908;7.730;2023-02-19T08:15:28;101349.25;;;19.90;76.34
13709;BME280;54933;51.908;7.730;2023-02-19T08:17:53;101347.56;;;19.89;76.49
13709;BME280;54933;51.908;7.730;2023-02-19T08:20:18;101358.16;;;19.90;76.82
13709;BME280;54933;51.908;7.730;2023-02-19T08:22:44;101350.91;;;19.91;77.14
13709;BME280;54933;51.908;7.730;2023-02-19T08:25:09;101359.84;;;19.91;77.13
13709;BME280;54933;51.908;7.730;2023-02-19T08:27:34;101365.25;;;19.91;77.48
13709;BME280;54933;51.908;7.730;2023-02-19T08:29:59;101358.00;;;19.92;77.36
13709;BME280;54933;51.908;7.730;2023-02-19T08:32:25;101366.69;;;19.94;77.46
13709;BME280;54933;51.908;7.730;2023-02-19T08:34:50;101373.97;;;19.93;77.55
13709;BME280;54933;51.908;7.730;2023-02-19T08:37:15;101380.63;;;19.97;77.53
13709;BME280;54933;51.908;7.730;2023-02-19T08:39:41;101380.63;;;19.97;77.17
13709;BME280;54933;51.908;7.730;2023-02-19T08:42:06;101389.13;;;19.94;77.46
13709;BME280;54933;51.908;7.730;2023-02-19T08:44:31;101389.72;;;19.90;77.37
13709;BME280;54933;51.908;7.730;2023-02-19T08:46:57;101396.31;;;19.87;76.79
13709;BME280;54933;51.908;7.730;2023-02-19T08:49:25;101402.56;;;19.88;77.21
13709;BME280;54933;51.908;7.730;2023-02-19T08:51:51;101402.75;;;19.86;77.11
13709;BME280;54933;51.908;7.730;2023-02-19T08:54:16;101403.78;;;19.85;77.31
13709;BME280;54933;51.908;7.730;2023-02-19T08:56:41;101415.38;;;19.86;77.29
13709;BME280;54933;51.908;7.730;2023-02-19T08:59:07;101423.47;;;19.86;77.49
13709;BME280;54933;51.908;7.730;2023-02-19T09:01:32;101435.31;;;19.85;77.52
13709;BME280;54933;51.908;7.730;2023-02-19T09:03:58;101436.16;;;19.85;77.65
13709;BME280;54933;51.908;7.730;2023-02-19T09:06:23;101438.66;;;19.87;78.07
13709;BME280;54933;51.908;7.730;2023-02-19T09:08:49;101450.72;;;19.91;78.39
13709;BME280;54933;51.908;7.730;2023-02-19T09:11:14;101452.41;;;19.92;78.67
13709;BME280;54933;51.908;7.730;2023-02-19T09:13:39;101451.56;;;19.91;78.98
13709;BME280;54933;51.908;7.730;2023-02-19T09:16:05;101457.59;;;19.93;79.05
13709;BME280;54933;51.908;7.730;2023-02-19T09:18:32;101456.75;;;19.93;78.92
13709;BME280;54933;51.908;7.730;2023-02-19T09:21:02;101473.97;;;19.92;79.14
13709;BME280;54933;51.908;7.730;2023-02-19T09:23:29;101473.78;;;19.93;79.45
13709;BME280;54933;51.908;7.730;2023-02-19T09:26:01;101486.44;;;19.57;77.80
13709;BME280;54933;51.908;7.730;2023-02-19T09:28:30;101476.53;;;18.70;72.85
13709;BME280;54933;51.908;7.730;2023-02-19T09:30:55;101483.88;;;19.06;71.03
13709;BME280;54933;51.908;7.730;2023-02-19T09:33:21;101495.22;;;19.30;70.13
13709;BME280;54933;51.908;7.730;2023-02-19T09:35:46;101499.59;;;19.46;71.09
13709;BME280;54933;51.908;7.730;2023-02-19T09:38:11;101507.19;;;19.57;71.94
13709;BME280;54933;51.908;7.730;2023-02-19T09:40:37;101508.91;;;19.64;72.64
13709;BME280;54933;51.908;7.730;2023-02-19T09:43:15;101510.03;;;19.70;73.01
13709;BME280;54933;51.908;7.730;2023-02-19T09:45:42;101513.19;;;19.73;73.36
13709;BME280;54933;51.908;7.730;2023-02-19T09:48:09;101513.63;;;19.77;73.86
13709;BME280;54933;51.908;7.730;2023-02-19T09:50:39;101523.19;;;19.79;74.11
13709;BME280;54933;51.908;7.730;2023-02-19T09:53:19;101532.78;;;19.82;74.35
13709;BME280;54933;51.908;7.730;2023-02-19T09:55:45;101537.97;;;19.83;74.22
13709;BME280;54933;51.908;7.730;2023-02-19T09:58:31;101541.50;;;19.84;74.66
13709;BME280;54933;51.908;7.730;2023-02-19T10:01:00;101550.25;;;19.86;74.54
13709;BME280;54933;51.908;7.730;2023-02-19T10:03:27;101563.72;;;19.86;74.60
13709;BME280;54933;51.908;7.730;2023-02-19T10:06:00;101560.03;;;19.87;74.76
13709;BME280;54933;51.908;7.730;2023-02-19T10:08:31;101571.44;;;19.89;74.82
13709;BME280;54933;51.908;7.730;2023-02-19T10:10:56;101581.22;;;19.90;74.93
13709;BME280;54933;51.908;7.730;2023-02-19T10:13:31;101590.13;;;19.90;75.00
13709;BME280;54933;51.908;7.730;2023-02-19T10:15:59;101588.28;;;19.91;74.93
13709;BME280;54933;51.908;7.730;2023-02-19T10:18:27;101595.50;;;19.90;75.19
13709;BME280;54933;51.908;7.730;2023-02-19T10:20:55;101599.91;;;19.91;75.24
13709;BME280;54933;51.908;7.730;2023-02-19T10:23:21;101598.88;;;19.92;75.07
13709;BME280;54933;51.908;7.730;2023-02-19T10:25:51;101605.09;;;19.93;75.40
13709;BME280;54933;51.908;7.730;2023-02-19T10:28:20;101605.09;;;19.93;75.22
13709;BME280;54933;51.908;7.730;2023-02-19T10:30:52;101612.16;;;19.94;75.39
13709;BME280;54933;51.908;7.730;2023-02-19T10:33:18;101622.94;;;19.94;75.43
13709;BME280;54933;51.908;7.730;2023-02-19T10:35:56;101617.56;;;19.94;75.46
13709;BME280;54933;51.908;7.730;2023-02-19T10:38:37;101625.44;;;19.95;75.27
13709;BME280;54933;51.908;7.730;2023-02-19T10:41:06;101623.59;;;19.96;75.55
13709;BME280;54933;51.908;7.730;2023-02-19T10:43:35;101623.59;;;19.96;75.52
13709;BME280;54933;51.908;7.730;2023-02-19T10:46:06;101633.34;;;19.97;75.45
13709;BME280;54933;51.908;7.730;2023-02-19T10:48:37;101631.69;;;19.96;75.56
13709;BME280;54933;51.908;7.730;2023-02-19T10:51:07;101633.34;;;19.97;75.75
13709;BME280;54933;51.908;7.730;2023-02-19T10:53:42;101641.28;;;19.98;75.61
13709;BME280;54933;51.908;7.730;2023-02-19T10:56:22;101636.06;;;19.97;75.64
13709;BME280;54933;51.908;7.730;2023-02-19T10:58:51;101640.44;;;19.98;75.85
13709;BME280;54933;51.908;7.730;2023-02-19T11:01:21;101651.22;;;19.98;75.85
13709;BME280;54933;51.908;7.730;2023-02-19T11:04:15;101649.38;;;19.98;75.77
13709;BME280;54933;51.908;7.730;2023-02-19T11:06:41;101644.81;;;19.99;75.71
13709;BME280;54933;51.908;7.730;2023-02-19T11:09:23;101642.94;;;19.99;75.93
13709;BME280;54933;51.908;7.730;2023-02-19T11:11:51;101654.59;;;20.00;75.84
13709;BME280;54933;51.908;7.730;2023-02-19T11:14:19;101651.88;;;20.00;75.92
13709;BME280;54933;51.908;7.730;2023-02-19T11:16:57;101656.25;;;20.01;75.89
13709;BME280;54933;51.908;7.730;2023-02-19T11:19:27;101656.25;;;20.01;75.85
13709;BME280;54933;51.908;7.730;2023-02-19T11:21:54;101658.75;;;20.02;75.87
13709;BME280;54933;51.908;7.730;2023-02-19T11:24:36;101660.59;;;20.02;75.94
13709;BME280;54933;51.908;7.730;2023-02-19T11:27:04;101661.25;;;20.04;76.08
13709;BME280;54933;51.908;7.730;2023-02-19T11:29:31;101660.41;;;20.03;75.93
13709;BME280;54933;51.908;7.730;2023-02-19T11:32:29;101655.88;;;20.04;75.76
13709;BME280;54933;51.908;7.730;2023-02-19T11:35:17;101649.47;;;20.05;75.88
13709;BME280;54933;51.908;7.730;2023-02-19T11:37:54;101652.97;;;20.05;76.05
13709;BME280;54933;51.908;7.730;2023-02-19T11:40:24;101659.22;;;20.06;76.14
13709;BME280;54933;51.908;7.730;2023-02-19T11:43:03;101650.09;;;20.07;75.82
13709;BME280;54933;51.908;7.730;2023-02-19T11:45:40;101646.38;;;20.08;76.00
13709;BME280;54933;51.908;7.730;2023-02-19T11:48:31;101652.59;;;20.08;75.80
13709;BME280;54933;51.908;7.730;2023-02-19T11:51:27;101645.34;;;20.09;76.03
13709;BME280;54933;51.908;7.730;2023-02-19T11:56:40;101639.75;;;20.10;75.86
13709;BME280;54933;51.908;7.730;2023-02-19T11:59:27;101637.06;;;20.10;75.76
13709;BME280;54933;51.908;7.730;2023-02-19T12:13:49;101652.69;;;20.15;75.68
13709;BME280;54933;51.908;7.730;2023-02-19T12:16:22;101651.69;;;20.16;76.43
13709;BME280;54933;51.908;7.730;2023-02-19T12:30:25;101667.97;;;20.08;72.75
13709;BME280;54933;51.908;7.730;2023-02-19T12:36:02;101670.78;;;20.14;73.69
13709;BME280;54933;51.908;7.730;2023-02-19T12:38:35;101668.91;;;20.15;73.89
13709;BME280;54933;51.908;7.730;2023-02-19T12:41:24;101666.19;;;20.15;74.22
13709;BME280;54933;51.908;7.730;2023-02-19T12:43:55;101670.59;;;20.16;74.54
13709;BME280;54933;51.908;7.730;2023-02-19T12:46:28;101677.66;;;20.17;74.45
13709;BME280;54933;51.908;7.730;2023-02-19T12:51:49;101683.03;;;20.17;75.03
13709;BME280;54933;51.908;7.730;2023-02-19T12:54:28;101694.69;;;20.17;74.99
13709;BME280;54933;51.908;7.730;2023-02-19T12:57:24;101690.13;;;20.18;75.25
13709;BME280;54933;51.908;7.730;2023-02-19T13:00:37;101690.94;;;20.18;75.16
13709;BME280;54933;51.908;7.730;2023-02-19T13:03:04;101689.94;;;20.19;75.43
13709;BME280;54933;51.908;7.730;2023-02-19T13:08:46;101691.78;;;20.19;75.53
13709;BME280;54933;51.908;7.730;2023-02-19T13:11:18;101696.34;;;20.18;75.85
13709;BME280;54933;51.908;7.730;2023-02-19T13:13:59;101697.84;;;20.21;75.59
13709;BME280;54933;51.908;7.730;2023-02-19T13:16:28;101695.16;;;20.21;75.82
13709;BME280;54933;51.908;7.730;2023-02-19T13:19:02;101700.53;;;20.21;75.73
13709;BME280;54933;51.908;7.730;2023-02-19T13:21:30;101693.25;;;20.21;76.00
13709;BME280;54933;51.908;7.730;2023-02-19T13:24:21;101704.91;;;20.22;75.88
13709;BME280;54933;51.908;7.730;2023-02-19T13:29:36;101702.84;;;20.24;76.08
13709;BME280;54933;51.908;7.730;2023-02-19T13:32:20;101704.91;;;20.22;76.11
13709;BME280;54933;51.908;7.730;2023-02-19T13:35:15;101704.72;;;20.23;76.13
13709;BME280;54933;51.908;7.730;2023-02-19T13:37:45;101709.25;;;20.23;76.02
13709;BME280;54933;51.908;7.730;2023-02-19T13:40:30;101704.53;;;20.25;76.06
13709;BME280;54933;51.908;7.730;2023-02-19T13:43:02;101712.63;;;20.25;76.18
13709;BME280;54933;51.908;7.730;2023-02-19T13:45:34;101715.31;;;20.25;76.31
13709;BME280;54933;51.908;7.730;2023-02-19T13:50:47;101718.84;;;20.26;76.35
13709;BME280;54933;51.908;7.730;2023-02-19T13:59:51;101726.75;;;20.27;76.41
13709;BME280;54933;51.908;7.730;2023-02-19T14:02:33;101732.16;;;20.27;76.30
13709;BME280;54933;51.908;7.730;2023-02-19T14:05:08;101721.38;;;20.27;76.29